Time,TemperatureF,DewpointF,PressureIn,WindDirection,WindDirectionDegrees,WindSpeedMPH,WindSpeedGustMPH,Humidity,HourlyPrecipIn,Conditions,Clouds,dailyrainin,SoftwareType,DateUTC
2013-11-16 00:22:00,62.0,45.0,29.66,NNE,23,0.0,0.0,53,0.00,,,0.00,,2013-11-16 07:22:00,
2013-11-16 00:42:00,63.0,45.0,29.66,NNE,17,3.0,3.0,52,0.00,,,0.00,,2013-11-16 07:42:00,
2013-11-16 00:52:00,63.0,45.0,29.66,NNE,17,3.0,3.0,52,0.00,,,0.00,,2013-11-16 07:52:00,
2013-11-16 01:22:00,62.0,45.0,29.66,NE,41,0.0,0.0,53,0.00,,,0.00,,2013-11-16 08:22:00,
2013-11-16 01:52:00,61.0,44.0,29.67,NE,37,1.0,0.0,54,0.00,,,0.00,,2013-11-16 08:52:00,
2013-11-16 02:22:00,60.0,44.0,29.67,ESE,104,1.0,0.0,55,0.00,,,0.00,,2013-11-16 09:22:00,
2013-11-16 02:53:00,60.0,45.0,29.67,ENE,68,0.0,0.0,57,0.00,,,0.00,,2013-11-16 09:53:00,
2013-11-16 03:23:00,58.0,43.0,29.67,East,79,0.0,0.0,58,0.00,,,0.00,,2013-11-16 10:23:00,
2013-11-16 03:52:00,56.0,43.0,29.68,East,79,0.0,0.0,61,0.00,,,0.00,,2013-11-16 10:52:00,
2013-11-16 04:22:00,55.0,43.0,29.68,East,79,0.0,0.0,63,0.00,,,0.00,,2013-11-16 11:22:00,
2013-11-16 04:53:00,56.0,43.0,29.69,East,79,0.0,0.0,62,0.00,,,0.00,,2013-11-16 11:53:00,
2013-11-16 05:21:00,56.0,43.0,29.70,East,79,0.0,0.0,62,0.00,,,0.00,,2013-11-16 12:21:00,
2013-11-16 05:52:00,56.0,43.0,29.70,East,79,0.0,0.0,62,0.00,,,0.00,,2013-11-16 12:52:00,
2013-11-16 06:21:00,57.0,43.0,29.71,East,79,0.0,0.0,60,0.00,,,0.00,,2013-11-16 13:21:00,
2013-11-16 06:52:00,56.0,43.0,29.71,East,79,0.0,0.0,62,0.00,,,0.00,,2013-11-16 13:52:00,
2013-11-16 07:21:00,56.0,43.0,29.72,East,79,0.0,0.0,62,0.00,,,0.00,,2013-11-16 14:21:00,
2013-11-16 07:52:00,56.0,43.0,29.71,East,79,0.0,0.0,62,0.00,,,0.00,,2013-11-16 14:52:00,
2013-11-16 08:21:00,58.0,44.0,29.71,East,79,0.0,0.0,59,0.00,,,0.00,,2013-11-16 15:21:00,
2013-11-16 08:53:00,61.0,44.0,29.72,East,79,0.0,0.0,54,0.00,,,0.00,,2013-11-16 15:53:00,
2013-11-16 09:53:00,66.0,43.0,29.75,North,10,2.0,3.0,43,0.00,,,0.00,,2013-11-16 16:53:00,
2013-11-16 10:22:00,68.0,45.0,29.76,NNE,18,0.0,0.0,43,0.00,,,0.00,,2013-11-16 17:22:00,
2013-11-16 10:52:00,70.0,43.0,29.78,SSW,195,2.0,0.0,37,0.00,,,0.00,,2013-11-16 17:52:00,
2013-11-16 11:23:00,70.0,41.0,29.78,NW,307,2.0,2.0,35,0.00,,,0.00,,2013-11-16 18:23:00,
2013-11-16 11:32:00,70.0,41.0,29.78,NW,307,2.0,2.0,35,0.00,,,0.00,,2013-11-16 18:32:00,
2013-11-16 11:52:00,71.0,41.0,29.78,WNW,295,3.0,3.0,34,0.00,,,0.00,,2013-11-16 18:52:00,
2013-11-16 12:21:00,71.0,42.0,29.76,SW,215,8.0,8.0,35,0.00,,,0.00,,2013-11-16 19:21:00,
2013-11-16 12:42:00,72.0,43.0,29.75,SSW,208,9.0,9.0,35,0.00,,,0.00,,2013-11-16 19:42:00,
2013-11-16 12:53:00,72.0,43.0,29.75,SSW,208,9.0,9.0,35,0.00,,,0.00,,2013-11-16 19:53:00,
2013-11-16 13:11:00,72.0,41.0,29.74,WSW,253,3.0,3.0,32,0.00,,,0.00,,2013-11-16 20:11:00,
2013-11-16 13:22:00,72.0,41.0,29.74,WSW,253,3.0,3.0,32,0.00,,,0.00,,2013-11-16 20:22:00,
2013-11-16 14:21:00,73.0,45.0,29.72,WNW,288,7.0,7.0,37,0.00,,,0.00,,2013-11-16 21:21:00,
2013-11-16 14:54:00,73.0,44.0,29.71,SE,127,5.0,5.0,36,0.00,,,0.00,,2013-11-16 21:54:00,
2013-11-16 15:24:00,73.0,45.0,29.71,SW,214,7.0,9.0,37,0.00,,,0.00,,2013-11-16 22:24:00,
2013-11-16 15:42:00,73.0,45.0,29.71,South,177,5.0,7.0,37,0.00,,,0.00,,2013-11-16 22:42:00,
2013-11-16 15:53:00,73.0,45.0,29.71,South,177,5.0,7.0,37,0.00,,,0.00,,2013-11-16 22:53:00,
2013-11-16 16:22:00,72.0,43.0,29.71,NNW,339,5.0,5.0,35,0.00,,,0.00,,2013-11-16 23:22:00,
2013-11-16 16:53:00,72.0,42.0,29.72,NW,315,6.0,7.0,34,0.00,,,0.00,,2013-11-16 23:53:00,
2013-11-16 17:21:00,71.0,42.0,29.72,North,353,4.0,5.0,35,0.00,,,0.00,,2013-11-17 00:21:00,
2013-11-16 17:42:00,70.0,42.0,29.72,NNW,336,4.0,4.0,36,0.00,,,0.00,,2013-11-17 00:42:00,
2013-11-16 17:52:00,69.0,42.0,29.72,NNW,332,2.0,2.0,37,0.00,,,0.00,,2013-11-17 00:52:00,
2013-11-16 18:21:00,68.0,42.0,29.72,NW,312,2.0,2.0,39,0.00,,,0.00,,2013-11-17 01:21:00,
2013-11-16 18:52:00,66.0,42.0,29.73,West,262,0.0,0.0,41,0.00,,,0.00,,2013-11-17 01:52:00,
2013-11-16 19:21:00,64.0,41.0,29.75,West,262,0.0,0.0,43,0.00,,,0.00,,2013-11-17 02:21:00,
2013-11-16 19:52:00,63.0,41.0,29.76,West,262,0.0,0.0,44,0.00,,,0.00,,2013-11-17 02:52:00,
2013-11-16 20:22:00,64.0,43.0,29.77,NNW,343,0.0,0.0,47,0.00,,,0.00,,2013-11-17 03:22:00,
2013-11-16 20:56:00,63.0,42.0,29.78,North,349,0.0,0.0,47,0.00,,,0.00,,2013-11-17 03:56:00,
2013-11-16 21:02:00,-999.0,-99.9,29.79,West,262,3.0,4.0,-999,-99.99,,,-99.99,,2013-11-17 04:02:00,
2013-11-16 21:24:00,63.0,43.0,29.80,SW,214,0.0,0.0,48,0.00,,,0.00,,2013-11-17 04:24:00,
2013-11-16 21:53:00,61.0,43.0,29.81,SW,214,0.0,0.0,52,0.00,,,0.00,,2013-11-17 04:53:00,
2013-11-16 22:23:00,61.0,43.0,29.83,SW,214,0.0,0.0,51,0.00,,,0.00,,2013-11-17 05:23:00,
2013-11-16 22:53:00,60.0,42.0,29.83,SW,214,0.0,0.0,51,0.00,,,0.00,,2013-11-17 05:53:00,
2013-11-16 23:22:00,58.0,41.0,29.84,SW,214,0.0,0.0,53,0.00,,,0.00,,2013-11-17 06:22:00,
2013-11-16 23:52:00,57.0,41.0,29.85,SW,214,0.0,0.0,56,0.00,,,0.00,,2013-11-17 06:52:00,